Huvudsida
METAR-TAF:

METAR-TAF

Flygplatser :

Medina, Saudiarabien

latitud: 24-33N, longitud: 039-42E, höjd: 654 m

Aktuellt väderrapport

Denna rapport gjordes för 35 minuter sedan, klockan 10:00 UTC
Vind 4 kt från väst/nordväst
Temperatur 41°C
Fuktighet 9%
Tryck 1012 hPa
Sikt 10 km eller mer
Inga moln under 1 500 m eller inga cumulonimbus

METAR: OEMA 151000Z 29004KT CAVOK 41/02 Q1012 NOSIG

Tid: 13:35 (10:35 UTC)

Väderprognos

Denna rapport gjordes för 5 timmar och 35 minuter sedan, klockan 05:00 UTC
Prognos gäller från 15 kl. 06 UTC till 16 kl. 12 UTC
Vind 3 kt varierande vindriktning
Sikt: 8000 m
Blir
från 15 kl. 09 UTC till 15 kl. 11 UTC
Vind 12 kt från sydväst

TAF: OEMA 150500Z 1506/1612 VRB03KT 8000 NSC BECMG 1509/1511 22012KT

Aktuella väderrapporter och prognoser från 4000 flygplatser (METAR- och TAF-rapporter).

De tillgängliga stationerna syns som gula och röda prickar på kartan.

För musen över prickarna för att se namnen på stationerna.

Klicka sedan för att få väderrapporter och prognoser.

För att ändra kartan: Klicka på de gröna knapparna med ett svart kors på för att zooma in; den gröna knappen med ett streck på för att zooma ut; eller på de gröna pilarna för angränsande kartor.


METAR-TAF: